Time;durP1;ratioP1;P1;durP2;ratioP2;P2;SDS_P1;SDS_P2;PMS_P1;PMS_P2;Temp;Humidity;BMP_temperature;BMP_pressure;BME280_temperature;BME280_humidity;BME280_pressure;Samples;Min_cycle;Max_cycle;Signal;HPM_P1;HPM_P2
2022/08/04 00:00:14;;;;;;;0.00;0.00;;;21.20;76.50;;;;;;5031812;28;20490;-67
2022/08/04 00:02:52;;;;;;;0.00;0.00;;;21.20;76.60;;;;;;5013967;28;20049;-68
2022/08/04 00:05:41;;;;;;;0.00;0.00;;;21.20;76.60;;;;;;5031354;28;20045;-67
2022/08/04 00:08:13;;;;;;;0.00;0.00;;;21.20;76.60;;;;;;5020161;28;20077;-68
2022/08/04 00:10:39;;;;;;;;;;;21.10;76.50;;;;;;5031969;28;20049;-68
2022/08/04 00:13:07;;;;;;;0.00;0.00;;;21.10;76.50;;;;;;5031902;28;20400;-68
2022/08/04 00:15:33;;;;;;;0.00;0.00;;;21.10;76.60;;;;;;5031623;28;20417;-68
2022/08/04 00:18:08;;;;;;;0.00;0.00;;;21.10;76.80;;;;;;5031223;28;20059;-67
2022/08/04 00:20:37;;;;;;;0.00;0.00;;;21.10;77.00;;;;;;5029518;28;20379;-67
2022/08/04 00:23:05;;;;;;;0.00;0.00;;;21.00;77.00;;;;;;5031637;28;20080;-67
2022/08/04 00:25:31;;;;;;;0.00;0.00;;;21.00;77.10;;;;;;5030803;28;20049;-67
2022/08/04 00:27:59;;;;;;;0.00;0.00;;;21.00;77.30;;;;;;5030774;28;20037;-69
2022/08/04 00:30:24;;;;;;;0.00;0.00;;;21.00;77.20;;;;;;5031591;28;20042;-67
2022/08/04 00:32:51;;;;;;;0.00;0.00;;;20.90;77.10;;;;;;5030711;28;20049;-67
2022/08/04 00:35:17;;;;;;;0.00;0.00;;;20.90;77.10;;;;;;5031527;28;20046;-67
2022/08/04 00:37:46;;;;;;;0.00;0.00;;;20.90;77.20;;;;;;5024118;28;20046;-67
2022/08/04 00:40:20;;;;;;;0.00;0.00;;;20.80;77.60;;;;;;5015886;28;20052;-67
2022/08/04 00:42:53;;;;;;;0.00;0.00;;;20.80;77.50;;;;;;5025135;28;20072;-67
2022/08/04 00:45:50;;;;;;;0.00;0.00;;;20.80;77.40;;;;;;5030714;28;20061;-68
2022/08/04 00:48:36;;;;;;;0.00;0.00;;;20.70;77.50;;;;;;5030797;28;20045;-67
2022/08/04 00:51:39;;;;;;;0.00;0.00;;;20.70;77.70;;;;;;5031154;28;20037;-67
2022/08/04 00:54:35;;;;;;;0.00;0.00;;;20.70;77.90;;;;;;5031054;28;20673;-67
2022/08/04 00:57:20;;;;;;;0.00;0.00;;;20.70;77.80;;;;;;5027374;28;20041;-67
2022/08/04 00:59:54;;;;;;;0.00;0.00;;;20.70;77.80;;;;;;5031478;28;20049;-67
2022/08/04 01:02:26;;;;;;;0.00;0.00;;;20.70;77.70;;;;;;5031188;28;20060;-67
2022/08/04 01:05:03;;;;;;;0.00;0.00;;;20.70;77.90;;;;;;5030829;28;20103;-67
2022/08/04 01:07:51;;;;;;;0.00;0.00;;;20.70;78.00;;;;;;5031041;28;20050;-67
2022/08/04 01:10:19;;;;;;;0.10;0.10;;;20.70;78.20;;;;;;5030092;28;20103;-67
2022/08/04 01:13:23;;;;;;;0.00;0.00;;;20.70;78.00;;;;;;5030715;28;20052;-67
2022/08/04 01:15:59;;;;;;;0.00;0.00;;;20.70;78.40;;;;;;5015210;28;20052;-67
2022/08/04 01:18:38;;;;;;;0.00;0.00;;;20.60;78.20;;;;;;5028782;28;20454;-67
2022/08/04 01:21:21;;;;;;;0.00;0.00;;;20.60;78.20;;;;;;5029490;28;20102;-67
2022/08/04 01:23:49;;;;;;;0.00;0.00;;;20.50;78.20;;;;;;5027637;28;20520;-68
2022/08/04 01:26:38;;;;;;;0.00;0.00;;;20.60;78.20;;;;;;5030161;28;20107;-68
2022/08/04 01:29:13;;;;;;;0.00;0.00;;;20.50;78.70;;;;;;5028992;28;20052;-67
2022/08/04 01:31:57;;;;;;;0.00;0.00;;;20.50;78.80;;;;;;5029856;28;20188;-67
2022/08/04 01:34:26;;;;;;;0.00;0.00;;;20.50;78.70;;;;;;5030060;28;20094;-67
2022/08/04 01:37:05;;;;;;;0.00;0.00;;;20.50;78.70;;;;;;5029488;28;20083;-68
2022/08/04 01:39:41;;;;;;;0.00;0.00;;;20.50;78.60;;;;;;5029784;28;20069;-67
2022/08/04 01:42:11;;;;;;;0.00;0.00;;;20.50;79.00;;;;;;5029296;28;20088;-68
2022/08/04 01:44:38;;;;;;;0.00;0.00;;;20.60;78.80;;;;;;5029607;28;20524;-68
2022/08/04 01:47:05;;;;;;;0.00;0.00;;;20.50;78.90;;;;;;5029890;28;20499;-67
2022/08/04 01:49:31;;;;;;;0.00;0.00;;;20.50;78.90;;;;;;5029161;28;20033;-68
2022/08/04 01:51:58;;;;;;;0.00;0.00;;;20.60;78.90;;;;;;5029515;28;20041;-67
2022/08/04 01:54:25;;;;;;;0.22;0.22;;;20.60;79.00;;;;;;5029687;28;20044;-67
2022/08/04 01:56:53;;;;;;;0.00;0.00;;;20.50;79.20;;;;;;5029838;28;20044;-67
2022/08/04 01:59:19;;;;;;;0.00;0.00;;;20.50;79.70;;;;;;5029369;28;20073;-67
2022/08/04 02:01:46;;;;;;;2.63;0.75;;;20.50;79.40;;;;;;5029696;28;20057;-67
2022/08/04 02:04:19;;;;;;;0.00;0.00;;;20.60;79.30;;;;;;5028417;28;20123;-68
2022/08/04 02:07:10;;;;;;;0.00;0.00;;;20.50;79.40;;;;;;5028886;28;20050;-67
2022/08/04 02:09:57;;;;;;;0.43;0.32;;;20.50;79.70;;;;;;5028984;28;20048;-67
2022/08/04 02:12:41;;;;;;;0.10;0.10;;;20.40;79.50;;;;;;5027961;28;20398;-67
2022/08/04 02:15:21;;;;;;;0.05;0.05;;;20.50;79.40;;;;;;5029462;28;20131;-67
2022/08/04 02:18:00;;;;;;;0.00;0.00;;;20.50;79.40;;;;;;5029834;28;20057;-67
2022/08/04 02:20:34;;;;;;;0.00;0.00;;;20.50;79.50;;;;;;5011646;28;20085;-68
2022/08/04 02:23:09;;;;;;;0.00;0.00;;;20.50;79.30;;;;;;5024831;28;20073;-67
2022/08/04 02:25:47;;;;;;;0.00;0.00;;;20.50;79.40;;;;;;5028243;28;20473;-67
2022/08/04 02:28:34;;;;;;;0.00;0.00;;;20.50;79.50;;;;;;5011121;28;20045;-67
2022/08/04 02:31:03;;;;;;;0.90;0.90;;;20.50;79.90;;;;;;5029079;28;20041;-67
2022/08/04 02:34:00;;;;;;;0.00;0.00;;;20.50;80.30;;;;;;5029336;28;20513;-67
2022/08/04 02:36:47;;;;;;;0.00;0.00;;;20.50;80.10;;;;;;5018124;28;20084;-67
2022/08/04 02:39:18;;;;;;;0.00;0.00;;;20.50;80.10;;;;;;5028890;28;20081;-67
2022/08/04 02:41:46;;;;;;;0.00;0.00;;;20.50;80.00;;;;;;5029009;28;20052;-67
2022/08/04 02:44:14;;;;;;;0.00;0.00;;;20.50;79.80;;;;;;5029230;28;20088;-67
2022/08/04 02:46:40;;;;;;;0.00;0.00;;;20.40;79.80;;;;;;5028499;28;20088;-67
2022/08/04 02:49:09;;;;;;;0.00;0.00;;;20.50;80.10;;;;;;5028828;28;20041;-67
2022/08/04 02:51:36;;;;;;;0.00;0.00;;;20.50;80.30;;;;;;5027645;28;20406;-67
2022/08/04 02:54:04;;;;;;;0.00;0.00;;;20.50;80.50;;;;;;5028844;28;20037;-67
2022/08/04 02:56:32;;;;;;;0.00;0.00;;;20.50;80.40;;;;;;5029003;28;20129;-67
2022/08/04 02:58:59;;;;;;;0.00;0.00;;;20.50;80.40;;;;;;5028584;28;20045;-67
2022/08/04 03:01:25;;;;;;;0.00;0.00;;;20.50;80.70;;;;;;5027025;28;20191;-67
2022/08/04 03:04:03;;;;;;;0.00;0.00;;;20.50;80.50;;;;;;5027617;28;20835;-67
2022/08/04 03:06:50;;;;;;;0.00;0.00;;;20.50;80.40;;;;;;5029021;28;20046;-67
2022/08/04 03:09:45;;;;;;;0.00;0.00;;;20.50;80.30;;;;;;5028389;28;20103;-67
2022/08/04 03:12:35;;;;;;;0.00;0.00;;;20.50;80.20;;;;;;5028369;28;20638;-67
2022/08/04 03:15:32;;;;;;;0.00;0.00;;;20.50;80.20;;;;;;5028106;28;20037;-67
2022/08/04 03:18:34;;;;;;;0.00;0.00;;;20.60;80.20;;;;;;5022567;28;20045;-67
2022/08/04 03:21:09;;;;;;;0.00;0.00;;;20.60;80.10;;;;;;5029089;28;20050;-67
2022/08/04 03:24:00;;;;;;;0.00;0.00;;;20.60;80.40;;;;;;5027566;28;20474;-67
2022/08/04 03:26:40;;;;;;;0.00;0.00;;;20.60;80.40;;;;;;5028756;28;20056;-67
2022/08/04 03:29:35;;;;;;;0.00;0.00;;;20.60;80.30;;;;;;5022979;28;20498;-67
2022/08/04 03:32:26;;;;;;;0.00;0.00;;;20.60;80.30;;;;;;5028152;28;20068;-67
2022/08/04 03:35:12;;;;;;;0.00;0.00;;;20.60;80.30;;;;;;5018443;28;20045;-68
2022/08/04 03:37:53;;;;;;;0.00;0.00;;;20.60;80.20;;;;;;5032508;28;20049;-68
2022/08/04 03:40:54;;;;;;;0.00;0.00;;;20.50;80.30;;;;;;5032139;28;20041;-68
2022/08/04 03:43:47;;;;;;;0.00;0.00;;;20.50;80.30;;;;;;5025796;28;20615;-67
2022/08/04 03:46:24;;;;;;;0.00;0.00;;;20.50;80.50;;;;;;5031351;28;20068;-67
2022/08/04 03:49:21;;;;;;;0.00;0.00;;;20.50;80.60;;;;;;5031736;28;20077;-67
2022/08/04 03:55:12;;;;;;;0.00;0.00;;;20.50;80.40;;;;;;5016869;28;20138;-67
2022/08/04 03:58:23;;;;;;;0.00;0.00;;;20.50;80.50;;;;;;5032277;28;20048;-68
2022/08/04 04:01:02;;;;;;;0.52;0.52;;;20.50;80.80;;;;;;5025556;28;20049;-67
2022/08/04 04:03:49;;;;;;;0.00;0.00;;;20.50;80.80;;;;;;5031785;28;20128;-68
2022/08/04 04:06:30;;;;;;;0.00;0.00;;;20.50;81.20;;;;;;5028359;28;20124;-68
2022/08/04 04:09:10;;;;;;;0.00;0.00;;;20.50;81.50;;;;;;5031701;28;20474;-67
2022/08/04 04:11:54;;;;;;;0.00;0.00;;;20.40;81.60;;;;;;5030470;28;20056;-67
2022/08/04 04:14:44;;;;;;;0.00;0.00;;;20.40;81.90;;;;;;5030694;28;20526;-67
2022/08/04 04:17:24;;;;;;;0.00;0.00;;;20.40;81.60;;;;;;5031733;28;20053;-67
2022/08/04 04:20:08;;;;;;;0.00;0.00;;;20.40;81.50;;;;;;5016467;28;20048;-68
2022/08/04 04:22:59;;;;;;;0.00;0.00;;;20.40;81.70;;;;;;5029926;28;20067;-68
2022/08/04 04:25:29;;;;;;;0.00;0.00;;;20.40;81.60;;;;;;5030461;28;20406;-68
2022/08/04 04:28:19;;;;;;;0.00;0.00;;;20.40;81.60;;;;;;5025782;28;20487;-68
2022/08/04 04:31:05;;;;;;;0.00;0.00;;;20.40;81.50;;;;;;5010526;28;20601;-69
2022/08/04 04:33:52;;;;;;;0.00;0.00;;;20.40;81.50;;;;;;5019366;28;20056;-69
2022/08/04 04:36:36;;;;;;;0.00;0.00;;;20.40;81.60;;;;;;5031053;28;20037;-69
2022/08/04 04:39:22;;;;;;;0.00;0.00;;;20.40;81.70;;;;;;5030698;28;20046;-68
2022/08/04 04:41:56;;;;;;;0.00;0.00;;;20.40;81.70;;;;;;5031200;28;20049;-68
2022/08/04 04:44:47;;;;;;;0.00;0.00;;;20.40;81.70;;;;;;5030192;28;20046;-68
2022/08/04 04:47:26;;;;;;;0.00;0.00;;;20.40;82.10;;;;;;5028687;28;20061;-69
2022/08/04 04:50:04;;;;;;;0.00;0.00;;;20.40;82.00;;;;;;5030603;28;20075;-69
2022/08/04 04:52:45;;;;;;;0.00;0.00;;;20.40;81.90;;;;;;5030407;28;20049;-69
2022/08/04 04:55:26;;;;;;;0.00;0.00;;;20.40;81.80;;;;;;5028526;28;20525;-69
2022/08/04 04:57:56;;;;;;;0.00;0.00;;;20.50;82.00;;;;;;5030624;28;20084;-68
2022/08/04 05:00:29;;;;;;;0.00;0.00;;;20.50;81.80;;;;;;5020931;28;20529;-69
2022/08/04 05:03:07;;;;;;;0.00;0.00;;;20.60;81.80;;;;;;5030307;28;20049;-68
2022/08/04 05:06:10;;;;;;;0.00;0.00;;;20.60;81.90;;;;;;5029686;28;20049;-69
2022/08/04 05:08:42;;;;;;;0.00;0.00;;;20.60;81.90;;;;;;5011733;28;20065;-68
2022/08/04 05:11:29;;;;;;;0.00;0.00;;;20.60;81.80;;;;;;5026316;28;20426;-68
2022/08/04 05:14:08;;;;;;;0.00;0.00;;;20.60;81.80;;;;;;5006380;28;20128;-69
2022/08/04 05:16:40;;;;;;;0.00;0.00;;;20.70;81.90;;;;;;5019574;28;20049;-68
2022/08/04 05:19:28;;;;;;;0.00;0.00;;;20.70;82.00;;;;;;5029056;28;20064;-68
2022/08/04 05:22:08;;;;;;;0.00;0.00;;;20.80;82.00;;;;;;5021683;28;20073;-69
2022/08/04 05:24:43;;;;;;;0.00;0.00;;;20.80;82.00;;;;;;5020959;28;20052;-69
2022/08/04 05:27:21;;;;;;;0.00;0.00;;;20.80;82.10;;;;;;5029382;28;20065;-68
2022/08/04 05:29:55;;;;;;;0.00;0.00;;;20.90;82.20;;;;;;5027796;28;20592;-68
2022/08/04 05:32:29;;;;;;;0.00;0.00;;;20.90;82.40;;;;;;5024142;28;20156;-69
2022/08/04 05:35:01;;;;;;;0.00;0.00;;;21.00;82.40;;;;;;5029414;28;20380;-68
2022/08/04 05:37:29;;;;;;;0.00;0.00;;;21.00;82.50;;;;;;5017447;28;20053;-68
2022/08/04 05:40:04;;;;;;;0.00;0.00;;;21.10;82.60;;;;;;5022433;28;20104;-67
2022/08/04 05:42:33;;;;;;;0.00;0.00;;;21.10;82.60;;;;;;5022995;28;20069;-67
2022/08/04 05:44:59;;;;;;;0.00;0.00;;;21.20;82.40;;;;;;5022883;28;20058;-66
2022/08/04 05:47:28;;;;;;;0.00;0.00;;;21.20;82.40;;;;;;5023246;28;20188;-65
2022/08/04 05:49:55;;;;;;;0.00;0.00;;;21.20;82.20;;;;;;5021364;28;20383;-66
2022/08/04 05:52:21;;;;;;;0.00;0.00;;;21.30;82.20;;;;;;5027757;28;20409;-66
2022/08/04 05:54:49;;;;;;;0.00;0.00;;;21.30;82.20;;;;;;5029692;28;20049;-66
2022/08/04 05:57:15;;;;;;;0.00;0.00;;;21.40;82.20;;;;;;5028673;28;20089;-67
2022/08/04 05:59:45;;;;;;;0.00;0.00;;;21.50;82.30;;;;;;5029460;28;20534;-66
2022/08/04 06:02:13;;;;;;;0.00;0.00;;;21.50;82.10;;;;;;5029212;28;20507;-65
2022/08/04 06:04:40;;;;;;;0.00;0.00;;;21.50;82.10;;;;;;5029070;28;20049;-65
2022/08/04 06:07:07;;;;;;;0.00;0.00;;;21.60;82.00;;;;;;5027903;28;20478;-65
2022/08/04 06:09:33;;;;;;;0.00;0.00;;;21.60;82.10;;;;;;5029602;28;20060;-66
2022/08/04 06:12:06;;;;;;;0.00;0.00;;;21.70;82.20;;;;;;5028725;28;20045;-65
2022/08/04 06:14:38;;;;;;;0.00;0.00;;;21.70;82.20;;;;;;5029170;28;20453;-66
2022/08/04 06:17:06;;;;;;;0.00;0.00;;;21.80;82.20;;;;;;5028974;28;20090;-65
2022/08/04 06:19:34;;;;;;;0.00;0.00;;;21.80;82.20;;;;;;5028773;28;20049;-66
2022/08/04 06:22:03;;;;;;;0.00;0.00;;;21.90;82.40;;;;;;5028253;28;20037;-67
2022/08/04 06:24:29;;;;;;;0.00;0.00;;;22.00;82.40;;;;;;5029281;28;20120;-67
2022/08/04 06:26:56;;;;;;;0.00;0.00;;;22.00;82.30;;;;;;5017734;28;20045;-68
2022/08/04 06:29:34;;;;;;;0.00;0.00;;;22.00;82.20;;;;;;5029385;28;20037;-67
2022/08/04 06:32:12;;;;;;;0.00;0.00;;;22.10;82.20;;;;;;5015240;28;20105;-67
2022/08/04 06:34:38;;;;;;;0.00;0.00;;;22.10;82.00;;;;;;5016178;28;20171;-69
2022/08/04 06:37:06;;;;;;;0.00;0.00;;;22.20;81.80;;;;;;5025916;28;20136;-68
2022/08/04 06:39:32;;;;;;;0.00;0.00;;;22.30;81.80;;;;;;5029554;28;20494;-68
2022/08/04 06:41:59;;;;;;;0.10;0.10;;;22.30;81.70;;;;;;5028021;28;20097;-68
2022/08/04 06:44:27;;;;;;;0.00;0.00;;;22.40;81.70;;;;;;5028369;28;20462;-67
2022/08/04 06:46:53;;;;;;;0.00;0.00;;;22.50;81.70;;;;;;5026543;28;20068;-66
2022/08/04 06:49:21;;;;;;;0.00;0.00;;;22.40;81.50;;;;;;5016632;28;20098;-66
2022/08/04 06:51:48;;;;;;;0.00;0.00;;;22.50;81.50;;;;;;5011354;28;20057;-66
2022/08/04 06:54:14;;;;;;;0.00;0.00;;;22.50;81.50;;;;;;5022721;28;20140;-66
2022/08/04 06:56:43;;;;;;;0.00;0.00;;;22.50;81.40;;;;;;5028417;28;20045;-67
2022/08/04 06:59:11;;;;;;;0.00;0.00;;;22.50;81.40;;;;;;5028411;28;20054;-67
2022/08/04 07:01:37;;;;;;;0.08;0.00;;;22.50;81.00;;;;;;5027969;28;20053;-66
2022/08/04 07:04:04;;;;;;;0.00;0.00;;;22.40;79.80;;;;;;5027676;28;20080;-66
2022/08/04 07:06:30;;;;;;;0.00;0.00;;;22.30;80.10;;;;;;5026500;28;20045;-66
2022/08/04 07:08:56;;;;;;;0.00;0.00;;;22.40;80.10;;;;;;5029669;28;20111;-66
2022/08/04 07:11:23;;;;;;;0.00;0.00;;;22.30;80.30;;;;;;5032805;28;20414;-70
2022/08/04 07:13:49;;;;;;;0.00;0.00;;;22.30;80.70;;;;;;5030614;28;20056;-73
2022/08/04 07:16:17;;;;;;;0.00;0.00;;;22.30;80.20;;;;;;5027479;28;20084;-67
2022/08/04 07:18:43;;;;;;;0.70;0.30;;;22.30;80.10;;;;;;5028111;28;20619;-66
2022/08/04 07:21:10;;;;;;;9.65;3.05;;;22.20;79.90;;;;;;5029766;28;20546;-66
2022/08/04 07:23:36;;;;;;;0.03;0.03;;;22.20;80.30;;;;;;5029894;28;20056;-66
2022/08/04 07:26:02;;;;;;;0.00;0.00;;;22.10;80.60;;;;;;5033102;28;20152;-66
2022/08/04 07:28:28;;;;;;;0.20;0.20;;;22.10;81.10;;;;;;5028469;28;20566;-67
2022/08/04 07:30:56;;;;;;;0.00;0.00;;;22.10;81.40;;;;;;5030880;28;20049;-66
2022/08/04 07:33:23;;;;;;;0.00;0.00;;;22.00;81.80;;;;;;5022205;28;20060;-66
2022/08/04 07:35:53;;;;;;;0.00;0.00;;;22.00;82.10;;;;;;5030750;28;20048;-66
2022/08/04 07:38:18;;;;;;;0.00;0.00;;;22.00;81.90;;;;;;5028234;28;20049;-66
2022/08/04 07:40:45;;;;;;;0.00;0.00;;;22.10;81.80;;;;;;5031785;28;20124;-66
2022/08/04 07:43:15;;;;;;;0.00;0.00;;;22.10;81.70;;;;;;5027025;28;20076;-67
2022/08/04 07:45:41;;;;;;;0.00;0.00;;;22.00;82.10;;;;;;5029979;28;20132;-66
2022/08/04 07:48:09;;;;;;;0.00;0.00;;;22.00;82.00;;;;;;5026686;28;20132;-66
2022/08/04 07:50:34;;;;;;;0.00;0.00;;;22.00;82.50;;;;;;5028833;28;20049;-67
2022/08/04 07:53:01;;;;;;;0.00;0.00;;;22.10;82.30;;;;;;5030091;28;20099;-66
2022/08/04 07:55:28;;;;;;;0.00;0.00;;;22.10;82.20;;;;;;5018195;28;20049;-68
2022/08/04 07:57:54;;;;;;;0.00;0.00;;;22.10;82.10;;;;;;5027311;28;20061;-67
2022/08/04 08:00:19;;;;;;;0.00;0.00;;;22.10;82.10;;;;;;5030899;28;20662;-67
2022/08/04 08:02:48;;;;;;;0.00;0.00;;;22.20;82.00;;;;;;5028393;28;20049;-67
2022/08/04 08:05:17;;;;;;;0.00;0.00;;;22.20;82.40;;;;;;5030053;28;20033;-69
2022/08/04 08:07:46;;;;;;;0.00;0.00;;;22.20;82.20;;;;;;5030360;28;20091;-69
2022/08/04 08:10:13;;;;;;;0.00;0.00;;;22.30;82.10;;;;;;5029604;28;20045;-69
2022/08/04 08:12:39;;;;;;;0.00;0.00;;;22.40;82.00;;;;;;5026612;28;20136;-69
2022/08/04 08:15:06;;;;;;;0.10;0.10;;;22.40;81.90;;;;;;5031196;28;20120;-58
2022/08/04 08:17:32;;;;;;;0.00;0.00;;;22.50;81.70;;;;;;5031212;28;20048;-61
2022/08/04 08:19:58;;;;;;;0.00;0.00;;;22.60;81.50;;;;;;5030400;28;20056;-71
2022/08/04 08:22:24;;;;;;;0.00;0.00;;;22.70;80.60;;;;;;5030409;28;20490;-68
2022/08/04 08:24:49;;;;;;;0.10;0.10;;;22.70;80.80;;;;;;5030292;28;20034;-66
2022/08/04 08:27:15;;;;;;;0.00;0.00;;;22.80;80.90;;;;;;5029580;28;20072;-68
2022/08/04 08:29:42;;;;;;;0.00;0.00;;;22.90;80.60;;;;;;5028775;28;20127;-69
2022/08/04 08:32:12;;;;;;;0.00;0.00;;;23.00;80.90;;;;;;5030486;28;20098;-68
2022/08/04 08:34:38;;;;;;;0.00;0.00;;;23.00;80.60;;;;;;5029237;28;20072;-69
2022/08/04 08:37:19;;;;;;;0.00;0.00;;;23.00;80.00;;;;;;5022662;28;20459;-69
2022/08/04 08:40:11;;;;;;;0.00;0.00;;;23.10;80.30;;;;;;5027721;28;20091;-71
2022/08/04 08:42:58;;;;;;;0.20;0.20;;;23.20;80.20;;;;;;5014363;28;20037;-67
2022/08/04 08:45:50;;;;;;;3.40;1.95;;;23.30;80.00;;;;;;5027010;28;20083;-67
2022/08/04 08:48:31;;;;;;;0.00;0.00;;;23.30;79.90;;;;;;5030031;28;20077;-70
2022/08/04 08:51:15;;;;;;;;;;;23.40;79.70;;;;;;5030765;28;20083;-71
2022/08/04 08:53:49;;;;;;;0.10;0.10;;;23.40;78.90;;;;;;5030332;28;19921;-65
2022/08/04 08:56:30;;;;;;;0.00;0.00;;;23.50;76.60;;;;;;5019305;28;20054;-68
2022/08/04 08:59:44;;;;;;;0.00;0.00;;;23.60;77.40;;;;;;5010312;28;20046;-67
2022/08/04 09:02:55;;;;;;;0.00;0.00;;;23.70;76.50;;;;;;5010843;28;20045;-67
2022/08/04 09:05:45;;;;;;;0.00;0.00;;;23.70;73.50;;;;;;5026815;28;20041;-67
2022/08/04 09:08:54;;;;;;;0.00;0.00;;;23.90;74.60;;;;;;5030763;28;20045;-68
2022/08/04 09:11:25;;;;;;;0.00;0.00;;;24.00;72.30;;;;;;5024586;28;20040;-67
2022/08/04 09:13:56;;;;;;;0.00;0.00;;;24.20;71.10;;;;;;5028520;28;20060;-67
2022/08/04 09:16:39;;;;;;;0.00;0.00;;;24.30;71.70;;;;;;5029616;28;20053;-67
2022/08/04 09:19:16;;;;;;;0.00;0.00;;;24.30;70.60;;;;;;5029831;28;20187;-67
2022/08/04 09:22:12;;;;;;;0.00;0.00;;;24.50;69.60;;;;;;5030403;28;20126;-66
2022/08/04 09:24:43;;;;;;;6.82;0.70;;;24.50;67.60;;;;;;5029900;28;20050;-66
2022/08/04 09:27:19;;;;;;;0.00;0.00;;;24.60;67.40;;;;;;5029888;28;20045;-67
2022/08/04 09:30:01;;;;;;;0.00;0.00;;;24.70;67.80;;;;;;5030357;28;20049;-66
2022/08/04 09:32:53;;;;;;;0.00;0.00;;;24.80;67.30;;;;;;5009902;28;20048;-67
2022/08/04 09:35:18;;;;;;;;;;;24.80;67.40;;;;;;5022628;28;20654;-67
2022/08/04 09:38:26;;;;;;;0.00;0.00;;;25.00;69.00;;;;;;5011484;28;19975;-66
2022/08/04 09:41:03;;;;;;;0.00;0.00;;;25.00;67.20;;;;;;5029707;28;20175;-67
2022/08/04 09:44:15;;;;;;;0.00;0.00;;;25.00;65.80;;;;;;5029824;28;20033;-66
2022/08/04 09:46:50;;;;;;;;;;;25.00;64.50;;;;;;5004593;28;20083;-67
2022/08/04 09:49:37;;;;;;;0.00;0.00;;;25.00;64.50;;;;;;5028917;28;20449;-67
2022/08/04 09:52:22;;;;;;;0.00;0.00;;;25.00;64.30;;;;;;5029612;28;20511;-67
2022/08/04 09:55:18;;;;;;;0.00;0.00;;;25.00;65.20;;;;;;5027774;28;20045;-67
2022/08/04 09:58:21;;;;;;;0.00;0.00;;;25.00;63.00;;;;;;5021591;28;20037;-66
2022/08/04 10:01:01;;;;;;;0.28;0.28;;;24.90;62.40;;;;;;5026111;28;20045;-67
2022/08/04 10:03:33;;;;;;;0.00;0.00;;;24.90;62.70;;;;;;5021030;28;20038;-68
2022/08/04 10:06:24;;;;;;;0.20;0.20;;;24.90;62.30;;;;;;5028586;28;20045;-68
2022/08/04 10:09:16;;;;;;;0.00;0.00;;;24.90;62.40;;;;;;5029398;28;20514;-69
2022/08/04 10:12:09;;;;;;;0.00;0.00;;;24.80;64.10;;;;;;5023286;28;20122;-68
2022/08/04 10:14:55;;;;;;;0.00;0.00;;;24.80;61.90;;;;;;5022583;28;20057;-68
2022/08/04 10:17:44;;;;;;;0.00;0.00;;;24.80;63.20;;;;;;5027970;28;20502;-68
2022/08/04 10:20:40;;;;;;;0.00;0.00;;;24.60;63.00;;;;;;5018254;28;20052;-68
2022/08/04 10:23:33;;;;;;;0.00;0.00;;;24.70;63.80;;;;;;5021789;28;20038;-68
2022/08/04 10:26:24;;;;;;;0.00;0.00;;;24.90;62.50;;;;;;5014128;28;20045;-68
2022/08/04 10:29:25;;;;;;;0.00;0.00;;;24.90;61.00;;;;;;5021599;28;20099;-69
2022/08/04 10:32:02;;;;;;;0.25;0.25;;;25.00;62.00;;;;;;5022091;28;20100;-68
2022/08/04 10:34:38;;;;;;;0.00;0.00;;;25.10;60.90;;;;;;5026661;28;20533;-74
2022/08/04 10:37:18;;;;;;;0.00;0.00;;;25.20;61.70;;;;;;5017612;28;20038;-67
2022/08/04 10:42:58;;;;;;;0.00;0.00;;;25.30;60.80;;;;;;5027815;28;20187;-68
2022/08/04 10:45:31;;;;;;;0.00;0.00;;;25.30;60.60;;;;;;5026440;28;20088;-68
2022/08/04 10:48:06;;;;;;;0.00;0.00;;;25.30;60.50;;;;;;5026727;28;20172;-68
2022/08/04 10:50:35;;;;;;;0.00;0.00;;;25.30;60.30;;;;;;5012834;28;20775;-67
2022/08/04 10:53:10;;;;;;;0.00;0.00;;;25.20;58.10;;;;;;5025694;28;20112;-69
2022/08/04 10:55:45;;;;;;;0.00;0.00;;;25.10;58.50;;;;;;5028255;28;20045;-69
2022/08/04 10:58:19;;;;;;;0.00;0.00;;;25.00;59.10;;;;;;5024042;28;20056;-68
2022/08/04 11:00:45;;;;;;;0.00;0.00;;;25.00;57.60;;;;;;5027282;28;20769;-68
2022/08/04 11:03:37;;;;;;;0.00;0.00;;;24.90;56.20;;;;;;5026366;28;20045;-69
2022/08/04 11:06:04;;;;;;;0.00;0.00;;;24.90;57.90;;;;;;5028058;28;20056;-68
2022/08/04 11:08:34;;;;;;;0.10;0.10;;;24.80;58.80;;;;;;5027519;28;20037;-69
2022/08/04 11:11:30;;;;;;;0.00;0.00;;;24.70;58.20;;;;;;5027209;28;20410;-68
2022/08/04 11:14:15;;;;;;;0.10;0.10;;;24.70;58.00;;;;;;5026897;28;20128;-69
2022/08/04 11:16:50;;;;;;;0.00;0.00;;;24.60;58.50;;;;;;5023619;28;20040;-69
2022/08/04 11:19:38;;;;;;;0.00;0.00;;;24.60;57.30;;;;;;5027303;28;20131;-69
2022/08/04 11:22:09;;;;;;;0.00;0.00;;;24.50;56.50;;;;;;5022115;28;20037;-68
2022/08/04 11:24:44;;;;;;;;;;;24.50;58.50;;;;;;5029409;28;20167;-69
2022/08/04 11:27:24;;;;;;;0.10;0.10;;;24.50;56.50;;;;;;5025322;28;19921;-68
2022/08/04 11:30:04;;;;;;;0.00;0.00;;;24.50;56.30;;;;;;5022844;28;20060;-69
2022/08/04 11:32:41;;;;;;;0.00;0.00;;;24.40;57.50;;;;;;5016931;28;20049;-67
2022/08/04 11:35:12;;;;;;;0.88;0.82;;;24.40;58.60;;;;;;5024501;28;20049;-67
2022/08/04 11:38:18;;;;;;;0.00;0.00;;;24.40;59.50;;;;;;5027202;28;20041;-67
2022/08/04 11:40:49;;;;;;;0.30;0.30;;;24.40;60.20;;;;;;5013877;28;20065;-69
2022/08/04 11:43:36;;;;;;;0.00;0.00;;;24.40;60.60;;;;;;5027472;28;20132;-70
2022/08/04 11:46:14;;;;;;;0.32;0.32;;;24.50;61.60;;;;;;5027346;28;20061;-70
2022/08/04 11:48:59;;;;;;;0.00;0.00;;;24.60;62.20;;;;;;5038709;28;20412;-70
2022/08/04 11:51:27;;;;;;;0.00;0.00;;;24.70;62.10;;;;;;5027239;28;20079;-70
2022/08/04 11:53:54;;;;;;;0.00;0.00;;;24.80;60.90;;;;;;5028322;28;20120;-69
2022/08/04 11:56:20;;;;;;;0.00;0.00;;;24.70;61.00;;;;;;5030129;28;20073;-71
2022/08/04 11:58:46;;;;;;;0.00;0.00;;;24.70;60.00;;;;;;5021864;28;20057;-71
2022/08/04 12:01:27;;;;;;;0.00;0.00;;;24.60;60.60;;;;;;5021675;28;20045;-71
2022/08/04 12:04:11;;;;;;;0.00;0.00;;;24.70;59.80;;;;;;5019372;28;20491;-70
2022/08/04 12:07:02;;;;;;;0.32;0.32;;;24.60;57.60;;;;;;5022614;28;20057;-70
2022/08/04 12:09:55;;;;;;;0.08;0.08;;;24.70;56.80;;;;;;5018110;28;20071;-72
2022/08/04 12:12:26;;;;;;;0.00;0.00;;;24.90;57.40;;;;;;5031931;28;20060;-73
2022/08/04 12:14:58;;;;;;;0.00;0.00;;;25.00;58.50;;;;;;5031280;28;20053;-71
2022/08/04 12:17:33;;;;;;;0.00;0.00;;;25.10;55.50;;;;;;5025399;28;20037;-71
2022/08/04 12:20:06;;;;;;;0.00;0.00;;;25.20;55.60;;;;;;5030712;28;20402;-71
2022/08/04 12:22:42;;;;;;;0.10;0.10;;;25.20;53.90;;;;;;5042510;28;20080;-70
2022/08/04 12:25:12;;;;;;;0.00;0.00;;;25.30;55.10;;;;;;5031271;28;20453;-70
2022/08/04 12:27:48;;;;;;;0.00;0.00;;;25.30;54.60;;;;;;5028685;28;20049;-71
2022/08/04 12:30:17;;;;;;;0.10;0.10;;;25.30;55.00;;;;;;5021123;28;20073;-71
2022/08/04 12:32:51;;;;;;;0.00;0.00;;;25.30;54.20;;;;;;4999406;28;20072;-72
2022/08/04 12:35:29;;;;;;;0.00;0.00;;;25.30;56.00;;;;;;5009320;28;20111;-72
2022/08/04 12:38:03;;;;;;;0.00;0.00;;;25.40;56.30;;;;;;5025573;28;20375;-72
2022/08/04 12:40:45;;;;;;;0.00;0.00;;;25.70;57.50;;;;;;5023649;28;20045;-72
2022/08/04 12:43:38;;;;;;;0.00;0.00;;;25.90;56.40;;;;;;5015010;28;20454;-71
2022/08/04 12:46:29;;;;;;;6.65;1.08;;;25.90;54.00;;;;;;5012666;28;20054;-71
2022/08/04 12:49:01;;;;;;;0.00;0.00;;;25.80;53.90;;;;;;5024402;28;20037;-71
2022/08/04 12:51:27;;;;;;;0.00;0.00;;;25.80;55.00;;;;;;5015357;28;20056;-71
2022/08/04 12:53:56;;;;;;;0.00;0.00;;;25.90;55.50;;;;;;5010218;28;20112;-71
2022/08/04 12:56:27;;;;;;;0.00;0.00;;;25.90;53.90;;;;;;5021469;28;20124;-71
2022/08/04 12:58:59;;;;;;;;;;;26.00;54.30;;;;;;5027831;28;20093;-70
2022/08/04 13:01:25;;;;;;;0.00;0.00;;;25.90;53.50;;;;;;5016131;28;19921;-70
2022/08/04 13:04:11;;;;;;;0.00;0.00;;;25.90;54.30;;;;;;5028404;28;20054;-71
2022/08/04 13:06:40;;;;;;;0.00;0.00;;;25.60;52.30;;;;;;5021686;28;20046;-70
2022/08/04 13:09:14;;;;;;;0.00;0.00;;;25.60;54.30;;;;;;5024818;28;20554;-70
2022/08/04 13:11:41;;;;;;;0.00;0.00;;;25.70;54.20;;;;;;5007861;28;20052;-71
2022/08/04 13:14:10;;;;;;;0.00;0.00;;;25.60;54.60;;;;;;5026784;28;20453;-69
2022/08/04 13:16:36;;;;;;;0.00;0.00;;;25.50;54.40;;;;;;5016210;28;20545;-71
2022/08/04 13:19:06;;;;;;;0.00;0.00;;;25.30;54.20;;;;;;5014852;28;20103;-71
2022/08/04 13:21:33;;;;;;;0.10;0.10;;;25.40;54.30;;;;;;5022469;28;20116;-70
2022/08/04 13:24:06;;;;;;;0.00;0.00;;;25.20;54.40;;;;;;5026549;28;20045;-70
2022/08/04 13:26:34;;;;;;;0.00;0.00;;;25.30;56.80;;;;;;5014247;28;20335;-71
2022/08/04 13:29:04;;;;;;;0.00;0.00;;;25.40;57.10;;;;;;5027169;28;20041;-71
2022/08/04 13:31:31;;;;;;;0.00;0.00;;;25.20;57.20;;;;;;5016627;28;20103;-71
2022/08/04 13:34:08;;;;;;;0.00;0.00;;;25.10;54.30;;;;;;5009295;28;20076;-71
2022/08/04 13:36:37;;;;;;;0.00;0.00;;;25.00;53.40;;;;;;5019921;28;20107;-71
2022/08/04 13:39:12;;;;;;;0.55;0.55;;;24.90;57.70;;;;;;4994469;28;20048;-71
2022/08/04 13:41:42;;;;;;;0.00;0.00;;;25.00;58.80;;;;;;5013572;28;20052;-71